createdAt,value
2023-02-02T00:02:07.989Z,253.25
2023-02-02T00:04:36.779Z,187.00
2023-02-02T00:07:07.556Z,179.25
2023-02-02T00:09:34.415Z,175.50
2023-02-02T00:12:02.131Z,141.00
2023-02-02T00:14:29.081Z,105.50
2023-02-02T00:16:56.963Z,120.75
2023-02-02T00:19:27.785Z,111.75
2023-02-02T00:21:55.733Z,125.00
2023-02-02T00:24:23.067Z,109.25
2023-02-02T00:26:52.555Z,120.25
2023-02-02T00:29:31.206Z,127.50
2023-02-02T00:31:58.099Z,178.00
2023-02-02T00:34:25.566Z,141.50
2023-02-02T00:36:52.681Z,145.00
2023-02-02T00:39:23.023Z,133.00
2023-02-02T00:41:49.922Z,136.75
2023-02-02T00:44:35.588Z,235.75
2023-02-02T00:47:03.365Z,228.50
2023-02-02T00:49:30.300Z,171.25
2023-02-02T00:51:57.721Z,158.00
2023-02-02T00:54:25.199Z,208.25
2023-02-02T00:56:51.969Z,202.50
2023-02-02T00:59:18.802Z,171.75
2023-02-02T01:01:45.683Z,131.75
2023-02-02T01:04:12.580Z,154.00
2023-02-02T01:06:40.339Z,158.75
2023-02-02T01:09:08.607Z,161.50
2023-02-02T01:11:35.359Z,160.75
2023-02-02T01:14:02.143Z,162.75
2023-02-02T01:16:29.157Z,102.00
2023-02-02T01:18:55.985Z,121.00
2023-02-02T01:21:23.209Z,114.50
2023-02-02T01:23:50.472Z,105.00
2023-02-02T01:26:17.801Z,107.25
2023-02-02T01:28:45.259Z,110.25
2023-02-02T01:31:19.275Z,107.75
2023-02-02T01:33:47.472Z,109.00
2023-02-02T01:36:17.125Z,146.00
2023-02-02T01:38:44.860Z,161.00
2023-02-02T01:41:17.404Z,169.75
2023-02-02T01:43:44.199Z,175.75
2023-02-02T01:46:21.547Z,190.75
2023-02-02T01:48:58.958Z,179.00
2023-02-02T01:51:51.751Z,154.25
2023-02-02T01:54:42.083Z,150.75
2023-02-02T01:57:28.495Z,159.25
2023-02-02T01:59:59.111Z,157.25
2023-02-02T02:02:28.034Z,155.00
2023-02-02T02:04:55.785Z,109.50
2023-02-02T02:07:23.889Z,105.25
2023-02-02T02:09:50.913Z,164.50
2023-02-02T02:12:17.748Z,151.75
2023-02-02T02:15:06.496Z,157.00
2023-02-02T02:18:12.103Z,147.50
2023-02-02T02:21:12.646Z,168.25
2023-02-02T02:24:10.128Z,149.75
2023-02-02T02:26:58.529Z,130.25
2023-02-02T02:29:59.685Z,115.50
2023-02-02T02:32:55.820Z,96.25
2023-02-02T02:35:39.207Z,96.25
2023-02-02T02:38:40.267Z,103.50
2023-02-02T02:41:13.921Z,96.50
2023-02-02T02:43:45.838Z,99.00
2023-02-02T02:46:13.563Z,86.25
2023-02-02T02:48:44.778Z,111.00
2023-02-02T02:51:47.252Z,105.75
2023-02-02T02:54:26.257Z,115.75
2023-02-02T02:57:11.654Z,110.50
2023-02-02T02:59:47.441Z,117.50
2023-02-02T03:02:24.417Z,137.00
2023-02-02T03:05:14.954Z,131.50
2023-02-02T03:07:48.853Z,118.00
2023-02-02T03:10:20.965Z,127.75
2023-02-02T03:12:50.202Z,134.50
2023-02-02T03:15:18.040Z,139.25
2023-02-02T03:17:47.003Z,134.00
2023-02-02T03:20:14.049Z,152.00
2023-02-02T03:22:40.854Z,148.50
2023-02-02T03:25:07.986Z,141.25
2023-02-02T03:27:34.772Z,131.50
2023-02-02T03:30:01.718Z,134.00
2023-02-02T03:32:28.508Z,127.50
2023-02-02T03:34:55.261Z,136.00
2023-02-02T03:37:22.071Z,131.50
2023-02-02T03:39:48.814Z,133.00
2023-02-02T03:42:15.568Z,156.75
2023-02-02T03:44:42.354Z,142.75
2023-02-02T03:47:09.273Z,126.75
2023-02-02T03:49:36.142Z,134.75
2023-02-02T03:52:05.034Z,112.75
2023-02-02T03:54:31.844Z,130.25
2023-02-02T03:56:58.591Z,123.50
2023-02-02T03:59:25.460Z,121.00
2023-02-02T04:01:52.227Z,121.50
2023-02-02T04:04:19.074Z,112.75
2023-02-02T04:06:45.828Z,110.25
2023-02-02T04:09:12.665Z,115.75
2023-02-02T04:11:40.105Z,97.75
2023-02-02T04:14:07.271Z,114.50
2023-02-02T04:16:37.144Z,84.25
2023-02-02T04:19:04.792Z,95.00
2023-02-02T04:21:32.215Z,110.00
2023-02-02T04:23:59.017Z,112.50
2023-02-02T04:26:26.397Z,119.25
2023-02-02T04:28:53.799Z,110.50
2023-02-02T04:31:20.750Z,118.00
2023-02-02T04:33:47.553Z,115.25
2023-02-02T04:36:14.577Z,106.00
2023-02-02T04:38:41.340Z,108.00
2023-02-02T04:41:10.158Z,106.75
2023-02-02T04:43:39.050Z,115.50
2023-02-02T04:46:06.325Z,110.00
2023-02-02T04:48:33.361Z,116.50
2023-02-02T04:51:01.969Z,120.00
2023-02-02T04:53:29.465Z,117.00
2023-02-02T04:55:56.526Z,115.75
2023-02-02T04:58:23.506Z,119.50
2023-02-02T05:00:50.697Z,133.50
2023-02-02T05:03:17.469Z,118.00
2023-02-02T05:05:44.246Z,123.25
2023-02-02T05:08:12.091Z,118.25
2023-02-02T05:10:42.284Z,110.75
2023-02-02T05:13:09.705Z,108.50
2023-02-02T05:15:36.433Z,110.75
2023-02-02T05:18:03.291Z,104.50
2023-02-02T05:20:30.075Z,107.00
2023-02-02T05:22:56.796Z,92.75
2023-02-02T05:25:23.894Z,111.75
2023-02-02T05:27:50.853Z,110.00
2023-02-02T05:30:17.991Z,104.50
2023-02-02T05:32:44.812Z,103.50
2023-02-02T05:35:11.681Z,95.50
2023-02-02T05:37:38.549Z,107.00
2023-02-02T05:40:05.851Z,108.00
2023-02-02T05:42:32.673Z,114.25
2023-02-02T05:44:59.456Z,113.50
2023-02-02T05:47:26.220Z,107.00
2023-02-02T05:49:53.032Z,146.75
2023-02-02T05:52:24.137Z,133.50
2023-02-02T05:54:51.535Z,127.50
2023-02-02T05:57:18.431Z,128.75
2023-02-02T05:59:45.164Z,119.75
2023-02-02T06:02:11.934Z,126.50
2023-02-02T06:04:38.826Z,114.25
2023-02-02T06:07:05.558Z,110.75
2023-02-02T06:09:32.324Z,132.25
2023-02-02T06:11:59.148Z,133.50
2023-02-02T06:14:25.985Z,141.50
2023-02-02T06:16:52.852Z,139.75
2023-02-02T06:19:19.781Z,131.25
2023-02-02T06:21:46.576Z,130.00
2023-02-02T06:24:13.407Z,140.50
2023-02-02T06:26:40.397Z,128.50
2023-02-02T06:29:07.906Z,154.50
2023-02-02T06:31:34.836Z,188.00
2023-02-02T06:34:01.644Z,173.75
2023-02-02T06:36:28.626Z,215.75
2023-02-02T06:38:56.960Z,167.25
2023-02-02T06:41:24.777Z,159.00
2023-02-02T06:43:51.942Z,170.25
2023-02-02T06:46:18.975Z,181.75
2023-02-02T06:48:46.088Z,196.00
2023-02-02T06:51:12.903Z,215.50
2023-02-02T06:53:39.685Z,222.00
2023-02-02T06:56:11.686Z,191.75
2023-02-02T06:58:38.460Z,211.25
2023-02-02T07:01:10.668Z,223.00
2023-02-02T07:03:38.633Z,195.25
2023-02-02T07:06:25.806Z,214.25
2023-02-02T07:09:02.950Z,220.75
2023-02-02T07:11:38.195Z,250.00
2023-02-02T07:14:08.520Z,195.50
2023-02-02T07:16:35.681Z,220.50
2023-02-02T07:19:02.509Z,184.25
2023-02-02T07:21:35.541Z,193.00
2023-02-02T07:24:03.202Z,224.50
2023-02-02T07:26:30.081Z,269.50
2023-02-02T07:28:56.875Z,261.50
2023-02-02T07:31:26.499Z,242.00
2023-02-02T07:33:53.988Z,269.25
2023-02-02T07:36:23.926Z,265.75
2023-02-02T07:38:57.484Z,296.25
2023-02-02T07:41:24.846Z,284.75
2023-02-02T07:43:52.145Z,274.50
2023-02-02T07:46:20.357Z,258.50
2023-02-02T07:48:47.599Z,277.50
2023-02-02T07:51:16.708Z,242.25
2023-02-02T07:53:48.590Z,269.00
2023-02-02T07:56:18.404Z,264.75
2023-02-02T07:58:45.637Z,270.75
2023-02-02T08:01:14.946Z,285.75
2023-02-02T08:03:45.669Z,285.25
2023-02-02T08:06:16.378Z,269.50
2023-02-02T08:08:43.637Z,299.00
2023-02-02T08:11:12.381Z,274.00
2023-02-02T08:13:40.298Z,272.00
2023-02-02T08:16:08.376Z,289.75
2023-02-02T08:18:36.137Z,324.00
2023-02-02T08:21:04.821Z,291.25
2023-02-02T08:23:31.822Z,300.75
2023-02-02T08:26:11.048Z,240.25
2023-02-02T08:28:39.138Z,263.50
2023-02-02T08:31:20.597Z,218.00
2023-02-02T08:33:47.458Z,177.75
2023-02-02T08:36:19.344Z,150.50
2023-02-02T08:38:47.001Z,144.75
2023-02-02T08:41:16.932Z,156.50
2023-02-02T08:43:44.652Z,185.00
2023-02-02T08:46:14.472Z,204.00
2023-02-02T08:48:41.570Z,166.25
2023-02-02T08:51:12.016Z,157.25
2023-02-02T08:53:39.001Z,169.00
2023-02-02T08:56:07.687Z,160.00
2023-02-02T08:58:35.003Z,170.00
2023-02-02T09:01:12.741Z,130.00
2023-02-02T09:03:40.438Z,107.25
2023-02-02T09:06:09.501Z,110.25
2023-02-02T09:08:36.683Z,107.75
2023-02-02T09:11:08.647Z,105.75
2023-02-02T09:13:36.665Z,123.00
2023-02-02T09:16:05.136Z,104.25
2023-02-02T09:18:32.548Z,126.00
2023-02-02T09:21:01.236Z,109.00
2023-02-02T09:23:32.599Z,103.50
2023-02-02T09:26:10.516Z,127.00
2023-02-02T09:28:39.523Z,153.25
2023-02-02T09:31:06.841Z,119.75
2023-02-02T09:33:34.235Z,105.25
2023-02-02T09:36:09.213Z,90.00
2023-02-02T09:38:36.892Z,91.00
2023-02-02T09:41:27.834Z,102.25
2023-02-02T09:44:06.228Z,93.50
2023-02-02T09:46:47.979Z,94.25
2023-02-02T09:49:23.258Z,96.25
2023-02-02T09:51:58.199Z,89.75
2023-02-02T09:54:33.097Z,91.25
2023-02-02T09:57:03.206Z,87.25
2023-02-02T09:59:36.037Z,88.50
2023-02-02T10:02:32.417Z,109.50
2023-02-02T10:05:09.459Z,92.00
2023-02-02T10:07:41.612Z,109.50
2023-02-02T10:10:40.236Z,119.75
2023-02-02T10:13:16.227Z,89.00
2023-02-02T10:15:50.863Z,110.75
2023-02-02T10:18:37.285Z,65.75
2023-02-02T10:21:10.863Z,22.75
2023-02-02T10:23:44.330Z,29.50
2023-02-02T10:26:23.529Z,25.33
2023-02-02T10:29:05.646Z,47.50
2023-02-02T10:31:32.419Z,60.75
2023-02-02T10:34:15.323Z,58.25
2023-02-02T10:37:20.024Z,63.00
2023-02-02T10:40:03.893Z,50.25
2023-02-02T10:42:39.414Z,30.00
2023-02-02T10:45:19.300Z,46.67
2023-02-02T10:47:46.157Z,27.33
2023-02-02T10:50:12.801Z,27.67
2023-02-02T10:52:56.628Z,45.00
2023-02-02T10:55:41.551Z,22.00
2023-02-02T10:58:14.186Z,28.00
2023-02-02T11:00:53.145Z,33.33
2023-02-02T11:03:27.523Z,42.25
2023-02-02T11:06:13.352Z,43.75
2023-02-02T11:08:44.849Z,37.67
2023-02-02T11:11:17.524Z,37.00
2023-02-02T11:13:50.141Z,44.00
2023-02-02T11:16:17.117Z,44.75
2023-02-02T11:18:45.460Z,38.75
2023-02-02T11:21:29.597Z,50.75
2023-02-02T11:24:03.404Z,54.75
2023-02-02T11:26:50.964Z,37.00
2023-02-02T11:29:43.442Z,54.75
2023-02-02T11:32:25.237Z,39.00
2023-02-02T11:35:04.136Z,43.75
2023-02-02T11:37:32.657Z,45.00
2023-02-02T11:40:22.810Z,43.75
2023-02-02T11:42:51.776Z,42.50
2023-02-02T11:45:27.152Z,32.00
2023-02-02T11:47:54.033Z,52.75
2023-02-02T11:50:27.567Z,36.25
2023-02-02T11:52:55.454Z,29.25
2023-02-02T11:55:30.018Z,43.75
2023-02-02T11:58:27.711Z,30.50
2023-02-02T12:01:06.376Z,38.75
2023-02-02T12:03:38.993Z,57.00
2023-02-02T12:06:35.700Z,47.50
2023-02-02T12:09:12.280Z,49.50
2023-02-02T12:12:02.854Z,43.50
2023-02-02T12:14:41.343Z,44.25
2023-02-02T12:17:22.316Z,26.50
2023-02-02T12:20:07.681Z,40.25
2023-02-02T12:22:52.835Z,45.00
2023-02-02T12:25:41.489Z,34.50
2023-02-02T12:28:44.997Z,31.75
2023-02-02T12:31:17.525Z,43.00
2023-02-02T12:33:57.642Z,33.00
2023-02-02T12:36:42.236Z,34.25
2023-02-02T12:39:22.455Z,34.00
2023-02-02T12:42:01.050Z,37.50
2023-02-02T12:44:42.623Z,29.00
2023-02-02T12:47:27.701Z,56.00
2023-02-02T12:50:12.206Z,27.00
2023-02-02T12:52:53.750Z,39.50
2023-02-02T12:55:26.571Z,41.75
2023-02-02T12:58:02.123Z,34.00
2023-02-02T13:00:44.127Z,24.00
2023-02-02T13:03:23.184Z,32.00
2023-02-02T13:06:19.361Z,36.00
2023-02-02T13:08:58.209Z,33.00
2023-02-02T13:11:39.364Z,36.50
2023-02-02T13:14:13.067Z,26.75
2023-02-02T13:16:48.523Z,29.75
2023-02-02T13:19:26.536Z,29.25
2023-02-02T13:21:58.018Z,33.25
2023-02-02T13:24:31.229Z,31.25
2023-02-02T13:27:01.705Z,34.75
2023-02-02T13:29:47.912Z,37.00
2023-02-02T13:32:29.091Z,40.75
2023-02-02T13:35:28.750Z,37.00
2023-02-02T13:38:23.030Z,45.00
2023-02-02T13:40:53.197Z,58.00
2023-02-02T13:43:26.169Z,28.67
2023-02-02T13:46:17.776Z,42.25
2023-02-02T13:49:02.482Z,45.00
2023-02-02T13:51:35.121Z,25.75
2023-02-02T13:54:33.380Z,19.67
2023-02-02T13:57:37.443Z,35.00
2023-02-02T14:00:25.132Z,38.00
2023-02-02T14:02:58.105Z,39.75
2023-02-02T14:05:31.953Z,45.50
2023-02-02T14:08:07.329Z,51.00
2023-02-02T14:10:38.062Z,48.25
2023-02-02T14:13:54.479Z,55.00
2023-02-02T14:16:41.660Z,53.75
2023-02-02T14:19:31.187Z,53.50
2023-02-02T14:22:11.968Z,47.25
2023-02-02T14:24:40.705Z,46.75
2023-02-02T14:27:07.449Z,38.00
2023-02-02T14:29:36.721Z,44.00
2023-02-02T14:32:11.628Z,33.75
2023-02-02T14:34:42.202Z,30.50
2023-02-02T14:37:24.205Z,34.75
2023-02-02T14:40:00.059Z,44.00
2023-02-02T14:43:01.817Z,39.75
2023-02-02T14:45:39.384Z,37.75
2023-02-02T14:48:20.657Z,39.50
2023-02-02T14:50:55.536Z,36.50
2023-02-02T14:53:40.376Z,18.00
2023-02-02T14:56:11.787Z,27.25
2023-02-02T14:58:45.936Z,33.50
2023-02-02T15:01:23.154Z,17.33
2023-02-02T15:04:15.898Z,26.00
2023-02-02T15:06:43.676Z,20.00
2023-02-02T15:09:23.441Z,46.25
2023-02-02T15:12:01.205Z,32.75
2023-02-02T15:14:51.372Z,26.25
2023-02-02T15:17:30.260Z,21.33
2023-02-02T15:20:06.900Z,15.00
2023-02-02T15:22:33.655Z,13.75
2023-02-02T15:25:13.816Z,17.33
2023-02-02T15:27:56.232Z,18.67
2023-02-02T15:30:24.691Z,23.50
2023-02-02T15:32:52.791Z,27.67
2023-02-02T15:35:30.178Z,20.33
2023-02-02T15:38:04.798Z,24.25
2023-02-02T15:40:32.305Z,20.00
2023-02-02T15:43:04.443Z,20.33
2023-02-02T15:45:43.413Z,14.67
2023-02-02T15:48:20.814Z,19.00
2023-02-02T15:50:51.258Z,39.50
2023-02-02T15:53:20.696Z,36.75
2023-02-02T15:55:47.716Z,26.50
2023-02-02T15:58:32.795Z,26.75
2023-02-02T16:01:14.497Z,78.25
2023-02-02T16:04:08.206Z,87.00
2023-02-02T16:06:35.535Z,72.75
2023-02-02T16:09:04.689Z,72.25
2023-02-02T16:11:31.741Z,73.25
2023-02-02T16:14:04.163Z,65.75
2023-02-02T16:16:36.247Z,64.50
2023-02-02T16:19:19.970Z,54.25
2023-02-02T16:22:03.313Z,34.25
2023-02-02T16:24:33.988Z,50.75
2023-02-02T16:27:04.210Z,53.75
2023-02-02T16:29:31.372Z,55.00
2023-02-02T16:31:58.497Z,38.50
2023-02-02T16:34:40.879Z,19.00
2023-02-02T16:37:12.579Z,54.25
2023-02-02T16:39:39.433Z,39.75
2023-02-02T16:42:10.950Z,47.50
2023-02-02T16:44:39.314Z,40.75
2023-02-02T16:47:08.740Z,42.00
2023-02-02T16:49:36.623Z,39.00
2023-02-02T16:52:18.202Z,39.25
2023-02-02T16:54:56.110Z,18.75
2023-02-02T16:57:34.342Z,60.50
2023-02-02T17:00:06.333Z,91.50
2023-02-02T17:02:40.759Z,150.50
2023-02-02T17:05:29.664Z,74.75
2023-02-02T17:08:05.654Z,60.25
2023-02-02T17:10:36.442Z,17.00
2023-02-02T17:13:23.849Z,17.25
2023-02-02T17:15:53.650Z,23.50
2023-02-02T17:18:20.496Z,21.00
2023-02-02T17:20:49.730Z,39.00
2023-02-02T17:23:18.480Z,23.50
2023-02-02T17:25:47.872Z,22.50
2023-02-02T17:28:18.615Z,16.25
2023-02-02T17:30:48.713Z,38.25
2023-02-02T17:33:18.087Z,34.50
2023-02-02T17:35:55.735Z,26.25
2023-02-02T17:38:24.692Z,72.00
2023-02-02T17:40:52.918Z,61.75
2023-02-02T17:43:19.830Z,60.75
2023-02-02T17:45:46.705Z,618.00
2023-02-02T17:48:14.191Z,222.25
2023-02-02T17:50:42.228Z,76.75
2023-02-02T17:53:14.756Z,155.25
2023-02-02T17:55:43.309Z,88.75
2023-02-02T17:58:13.302Z,93.00
2023-02-02T18:00:41.276Z,89.75
2023-02-02T18:03:19.945Z,161.75
2023-02-02T18:05:47.278Z,198.25
2023-02-02T18:08:14.519Z,197.50
2023-02-02T18:10:42.384Z,137.25
2023-02-02T18:13:15.983Z,166.00
2023-02-02T18:15:43.606Z,46.00
2023-02-02T18:18:12.452Z,13.25
2023-02-02T18:20:46.979Z,121.00
2023-02-02T18:23:14.392Z,110.25
2023-02-02T18:25:41.404Z,82.25
2023-02-02T18:28:08.988Z,25.50
2023-02-02T18:30:38.824Z,58.25
2023-02-02T18:33:08.788Z,50.75
2023-02-02T18:35:36.767Z,74.00
2023-02-02T18:38:03.480Z,69.00
2023-02-02T18:40:30.230Z,36.00
2023-02-02T18:42:57.037Z,86.50
2023-02-02T18:45:24.354Z,56.25
2023-02-02T18:47:51.345Z,52.25
2023-02-02T18:50:18.439Z,58.75
2023-02-02T18:52:45.213Z,75.75
2023-02-02T18:55:11.975Z,23.50
2023-02-02T18:57:38.819Z,70.25
2023-02-02T19:00:06.202Z,34.25
2023-02-02T19:02:33.044Z,57.25
2023-02-02T19:05:18.626Z,34.75
2023-02-02T19:07:54.577Z,29.00
2023-02-02T19:10:22.722Z,54.75
2023-02-02T19:13:03.636Z,35.00
2023-02-02T19:15:34.175Z,51.25
2023-02-02T19:18:01.290Z,49.75
2023-02-02T19:20:30.344Z,59.25
2023-02-02T19:23:07.091Z,40.00
2023-02-02T19:25:33.936Z,69.25
2023-02-02T19:28:09.109Z,73.75
2023-02-02T19:30:36.079Z,95.25
2023-02-02T19:33:02.851Z,90.00
2023-02-02T19:35:32.423Z,94.50
2023-02-02T19:38:01.855Z,80.25
2023-02-02T19:40:28.950Z,66.25
2023-02-02T19:43:08.232Z,67.50
2023-02-02T19:45:35.846Z,44.50
2023-02-02T19:48:14.093Z,68.50
2023-02-02T19:50:41.890Z,49.25
2023-02-02T19:53:23.276Z,44.25
2023-02-02T19:55:52.364Z,69.50
2023-02-02T19:58:22.174Z,75.50
2023-02-02T20:00:53.972Z,130.50
2023-02-02T20:03:24.294Z,55.00
2023-02-02T20:05:52.587Z,68.25
2023-02-02T20:08:26.883Z,80.50
2023-02-02T20:10:55.964Z,98.00
2023-02-02T20:13:35.670Z,99.50
2023-02-02T20:16:08.145Z,100.25
2023-02-02T20:18:49.433Z,132.00
2023-02-02T20:21:24.541Z,119.75
2023-02-02T20:23:51.455Z,104.75
2023-02-02T20:26:33.519Z,87.75
2023-02-02T20:29:13.824Z,85.00
2023-02-02T20:31:40.917Z,79.75
2023-02-02T20:34:29.612Z,93.75
2023-02-02T20:37:15.648Z,84.25
2023-02-02T20:40:02.434Z,86.50
2023-02-02T20:42:29.481Z,88.75
2023-02-02T20:44:58.212Z,82.50
2023-02-02T20:47:25.124Z,86.75
2023-02-02T20:49:51.889Z,79.25
2023-02-02T20:52:24.020Z,98.00
2023-02-02T20:54:52.844Z,96.75
2023-02-02T20:57:19.572Z,108.00
2023-02-02T20:59:46.426Z,108.00
2023-02-02T21:02:22.900Z,109.00
2023-02-02T21:04:51.272Z,126.25
2023-02-02T21:07:20.852Z,126.25
2023-02-02T21:09:50.004Z,113.00
2023-02-02T21:12:17.942Z,109.75
2023-02-02T21:14:47.554Z,89.00
2023-02-02T21:17:15.937Z,90.25
2023-02-02T21:19:44.062Z,67.50
2023-02-02T21:22:11.697Z,69.25
2023-02-02T21:24:38.734Z,72.00
2023-02-02T21:27:05.560Z,69.00
2023-02-02T21:29:32.823Z,62.75
2023-02-02T21:32:02.528Z,60.25
2023-02-02T21:34:30.883Z,69.00
2023-02-02T21:36:58.567Z,70.50
2023-02-02T21:39:35.152Z,73.00
2023-02-02T21:42:07.930Z,67.25
2023-02-02T21:44:36.286Z,47.50
2023-02-02T21:47:03.150Z,64.25
2023-02-02T21:49:39.370Z,46.75
2023-02-02T21:52:17.866Z,34.75
2023-02-02T21:54:44.747Z,43.00
2023-02-02T21:57:21.275Z,31.25
2023-02-02T21:59:57.461Z,24.75
2023-02-02T22:02:32.844Z,25.50
2023-02-02T22:05:01.877Z,27.00
2023-02-02T22:07:31.071Z,31.00
2023-02-02T22:09:57.815Z,34.50
2023-02-02T22:12:27.303Z,38.75
2023-02-02T22:15:00.187Z,34.50
2023-02-02T22:17:37.549Z,29.25
2023-02-02T22:20:13.295Z,35.50
2023-02-02T22:22:45.096Z,40.00
2023-02-02T22:25:17.824Z,38.25
2023-02-02T22:27:51.254Z,35.75
2023-02-02T22:30:35.173Z,29.25
2023-02-02T22:33:02.165Z,30.50
2023-02-02T22:35:29.353Z,28.75
2023-02-02T22:37:56.154Z,35.00
2023-02-02T22:40:22.896Z,54.25
2023-02-02T22:42:54.885Z,49.50
2023-02-02T22:45:22.070Z,56.50
2023-02-02T22:47:49.001Z,24.75
2023-02-02T22:50:24.864Z,29.50
2023-02-02T22:52:52.307Z,33.00
2023-02-02T22:55:20.016Z,38.00
2023-02-02T22:57:47.771Z,30.00
2023-02-02T23:00:20.613Z,27.50
2023-02-02T23:02:47.466Z,18.00
2023-02-02T23:05:16.127Z,26.75
2023-02-02T23:07:44.218Z,33.50
2023-02-02T23:10:19.066Z,27.00
2023-02-02T23:12:46.837Z,30.75
2023-02-02T23:15:15.173Z,35.75
2023-02-02T23:17:42.664Z,55.25
2023-02-02T23:20:12.388Z,62.00
2023-02-02T23:22:39.234Z,42.25
2023-02-02T23:25:06.530Z,84.00
2023-02-02T23:27:33.545Z,89.75
2023-02-02T23:30:00.285Z,82.25
2023-02-02T23:32:27.206Z,88.25
2023-02-02T23:34:53.976Z,88.75
2023-02-02T23:37:20.821Z,89.25
2023-02-02T23:39:47.679Z,70.50
2023-02-02T23:42:14.537Z,80.00
2023-02-02T23:44:41.309Z,77.25
2023-02-02T23:47:09.128Z,74.00
2023-02-02T23:49:36.604Z,61.00
2023-02-02T23:52:03.693Z,69.25
2023-02-02T23:54:31.443Z,78.50
2023-02-02T23:56:58.628Z,77.50
2023-02-02T23:59:25.505Z,65.25
